Time;durP1;ratioP1;P1;durP2;ratioP2;P2;SDS_P1;SDS_P2;PMS_P1;PMS_P2;Temp;Humidity;BMP_temperature;BMP_pressure;BME280_temperature;BME280_humidity;BME280_pressure;Samples;Min_cycle;Max_cycle;Signal;HPM_P1;HPM_P2
2021/01/24 00:02:04;;;;;;;11.77;9.70;;;;;;;2.31;85.18;93093.03;5012317;28;20038;-61
2021/01/24 00:04:30;;;;;;;11.20;8.73;;;;;;;2.54;84.92;93115.50;5030099;28;20127;-61
2021/01/24 00:06:55;;;;;;;8.55;7.30;;;;;;;2.26;84.18;93120.19;5030033;28;20495;-61
2021/01/24 00:09:20;;;;;;;8.25;6.63;;;;;;;2.28;84.16;93119.88;5032037;28;20034;-60
2021/01/24 00:11:45;;;;;;;7.82;7.07;;;;;;;2.32;84.47;93128.69;5029754;28;20469;-62
2021/01/24 00:14:11;;;;;;;8.13;6.32;;;;;;;2.52;84.45;93117.69;5012216;28;20049;-62
2021/01/24 00:16:36;;;;;;;6.25;5.55;;;;;;;2.75;84.54;93125.47;5030100;28;20048;-60
2021/01/24 00:19:01;;;;;;;6.03;5.43;;;;;;;2.75;84.29;93091.34;5029564;28;20053;-61
2021/01/24 00:21:27;;;;;;;6.10;5.50;;;;;;;3.00;84.07;93101.13;5029417;28;20041;-63
2021/01/24 00:23:52;;;;;;;6.82;6.07;;;;;;;3.00;83.53;93082.75;5031719;28;20049;-62
2021/01/24 00:26:17;;;;;;;6.60;5.90;;;;;;;3.22;83.37;93120.50;5011692;28;20037;-60
2021/01/24 00:28:42;;;;;;;6.38;5.65;;;;;;;3.18;82.90;93104.59;5011526;28;20052;-62
2021/01/24 00:31:08;;;;;;;6.07;5.00;;;;;;;3.28;82.41;93120.06;5029559;28;20084;-60
2021/01/24 00:33:33;;;;;;;5.60;5.00;;;;;;;3.19;82.01;93119.25;5029420;28;20668;-61
2021/01/24 00:35:58;;;;;;;6.82;5.00;;;;;;;2.80;82.19;93117.47;5031546;28;20523;-61
2021/01/24 00:38:24;;;;;;;6.25;5.60;;;;;;;2.31;83.02;93090.44;5029508;28;20049;-61
2021/01/24 00:40:49;;;;;;;6.05;5.40;;;;;;;2.55;83.00;93103.94;5029553;28;20034;-61
2021/01/24 00:43:14;;;;;;;6.50;5.85;;;;;;;2.67;83.06;93110.47;5011260;28;20052;-61
2021/01/24 00:45:40;;;;;;;7.47;5.75;;;;;;;2.22;82.96;93121.06;5029294;28;20071;-61
2021/01/24 00:48:05;;;;;;;6.70;6.00;;;;;;;2.45;83.93;93130.44;5031052;28;20076;-61
2021/01/24 00:50:30;;;;;;;6.88;6.18;;;;;;;2.57;84.27;93117.53;5011529;28;20137;-61
2021/01/24 00:52:56;;;;;;;7.60;5.75;;;;;;;3.00;83.66;93147.66;5028915;28;20056;-61
2021/01/24 00:55:21;;;;;;;5.95;5.38;;;;;;;3.06;83.78;93130.66;5029375;28;20521;-63
2021/01/24 00:57:47;;;;;;;6.30;5.70;;;;;;;3.18;83.82;93124.84;5028728;28;20037;-62
2021/01/24 01:00:12;;;;;;;5.53;5.03;;;;;;;3.27;83.42;93131.63;5031031;28;20025;-61
2021/01/24 01:02:37;;;;;;;5.72;5.13;;;;;;;3.24;83.32;93118.34;5028713;28;20179;-61
2021/01/24 01:05:04;;;;;;;5.82;5.15;;;;;;;3.41;82.87;93144.63;5028876;28;20061;-61
2021/01/24 01:07:29;;;;;;;5.68;5.10;;;;;;;3.30;82.79;93143.38;5028591;28;20077;-60
2021/01/24 01:09:54;;;;;;;5.85;5.00;;;;;;;3.17;82.45;93124.03;5029061;28;20077;-61
2021/01/24 01:12:20;;;;;;;5.63;5.13;;;;;;;3.27;82.69;93157.13;5030595;28;20071;-61
2021/01/24 01:14:45;;;;;;;6.90;5.38;;;;;;;3.18;82.12;93148.47;5028784;28;20034;-62
2021/01/24 01:17:10;;;;;;;6.28;5.50;;;;;;;2.98;82.25;93113.03;5028586;28;20044;-62
2021/01/24 01:19:36;;;;;;;6.75;5.65;;;;;;;3.10;82.14;93147.38;5028736;28;20068;-62
2021/01/24 01:22:01;;;;;;;5.53;5.03;;;;;;;3.21;82.59;93164.38;5026974;28;20136;-61
2021/01/24 01:24:26;;;;;;;9.30;5.72;;;;;;;3.11;82.64;93149.69;5011040;28;20029;-63
2021/01/24 01:26:52;;;;;;;6.20;5.00;;;;;;;3.16;81.67;93163.75;5030323;28;20041;-62
2021/01/24 01:29:17;;;;;;;5.82;5.03;;;;;;;2.89;82.28;93134.03;5028544;28;20047;-62
2021/01/24 01:31:42;;;;;;;5.20;4.75;;;;;;;2.99;82.04;93154.75;5028511;28;20042;-60
2021/01/24 01:34:07;;;;;;;5.05;4.60;;;;;;;2.92;81.72;93158.88;5028459;28;20738;-62
2021/01/24 01:36:33;;;;;;;6.03;4.53;;;;;;;2.67;81.73;93140.13;5028599;28;20369;-61
2021/01/24 01:39:00;;;;;;;6.90;4.38;;;;;;;2.44;81.70;93125.50;5012223;28;20619;-61
2021/01/24 01:41:30;;;;;;;4.75;4.35;;;;;;;2.45;81.91;93151.44;5028196;28;20041;-61
2021/01/24 01:43:55;;;;;;;4.82;4.32;;;;;;;2.16;82.31;93135.41;5028431;28;20121;-60
2021/01/24 01:46:22;;;;;;;5.20;4.47;;;;;;;2.20;82.09;93159.94;5028388;28;20134;-66
2021/01/24 01:48:48;;;;;;;5.88;5.30;;;;;;;1.92;82.41;93130.47;5028105;28;20128;-62
2021/01/24 01:51:15;;;;;;;6.43;4.15;;;;;;;1.90;82.91;93146.50;5030029;28;20448;-61
2021/01/24 01:53:41;;;;;;;4.00;3.40;;;;;;;1.83;83.06;93148.75;5010711;28;20045;-60
2021/01/24 01:56:06;;;;;;;2.60;2.35;;;;;;;1.56;84.26;93150.38;5028348;28;20038;-61
2021/01/24 01:58:32;;;;;;;2.67;1.83;;;;;;;1.34;84.78;93160.06;5027965;28;20056;-61
2021/01/24 02:00:58;;;;;;;1.67;1.58;;;;;;;1.39;84.35;93139.00;5028395;28;20095;-61
2021/01/24 02:03:54;;;;;;;1.77;1.65;;;;;;;1.43;83.99;93169.53;5027878;28;20036;-63
2021/01/24 02:06:43;;;;;;;1.67;1.58;;;;;;;1.56;83.81;93162.72;5016432;28;20034;-60
2021/01/24 02:09:18;;;;;;;2.08;1.90;;;;;;;1.44;83.84;93139.66;5014854;28;20414;-62
2021/01/24 02:12:05;;;;;;;1.63;1.42;;;;;;;1.29;84.66;93166.19;5032102;28;20042;-61
2021/01/24 02:14:36;;;;;;;1.55;1.45;;;;;;;1.18;84.21;93155.16;5032285;28;20099;-62
2021/01/24 02:17:08;;;;;;;1.30;1.20;;;;;;;1.41;83.81;93163.81;5031978;28;20049;-62
2021/01/24 02:19:49;;;;;;;;;;;;;;;1.55;84.35;93179.53;5032660;28;20518;-59
2021/01/24 02:22:16;;;;;;;1.33;0.93;;;;;;;1.49;84.63;93171.00;5014210;28;19917;-62
2021/01/24 02:24:48;;;;;;;1.17;1.05;;;;;;;1.61;84.36;93180.19;5032254;28;20338;-62
2021/01/24 02:27:20;;;;;;;0.95;0.82;;;;;;;1.48;84.52;93174.66;5033727;28;20033;-61
2021/01/24 02:29:58;;;;;;;;;;;;;;;1.51;84.22;93184.56;5032575;28;20048;-60
2021/01/24 02:32:26;;;;;;;0.73;0.60;;;;;;;1.20;84.66;93152.22;5031723;28;20298;-63
2021/01/24 02:34:55;;;;;;;0.95;0.60;;;;;;;1.63;84.33;93159.69;5014079;28;20034;-62
2021/01/24 02:37:22;;;;;;;0.55;0.55;;;;;;;1.61;84.36;93182.81;5013936;28;20573;-62
2021/01/24 02:39:48;;;;;;;1.00;0.85;;;;;;;1.60;83.80;93168.94;5031804;28;20112;-62
2021/01/24 02:42:14;;;;;;;0.77;0.60;;;;;;;1.81;83.72;93184.97;5015627;28;20463;-62
2021/01/24 02:44:40;;;;;;;0.70;0.50;;;;;;;1.80;83.91;93186.81;5031505;28;20038;-62
2021/01/24 02:47:06;;;;;;;0.77;0.77;;;;;;;1.66;84.05;93165.13;5013574;28;20049;-62
2021/01/24 02:49:35;;;;;;;0.73;0.68;;;;;;;1.67;84.83;93173.75;5031438;28;20049;-61
2021/01/24 02:52:01;;;;;;;1.02;0.52;;;;;;;1.17;83.82;93153.56;5013401;28;20048;-61
2021/01/24 02:54:27;;;;;;;0.80;0.75;;;;;;;1.50;85.11;93184.88;5031294;28;20030;-63
2021/01/24 02:56:53;;;;;;;0.55;0.55;;;;;;;1.38;85.02;93182.72;5033060;28;20059;-61
2021/01/24 02:59:19;;;;;;;0.68;0.68;;;;;;;1.19;85.28;93172.41;5031245;28;20511;-61
2021/01/24 03:01:45;;;;;;;0.40;0.40;;;;;;;1.27;84.95;93176.94;5031000;28;20044;-62
2021/01/24 03:04:10;;;;;;;0.50;0.50;;;;;;;1.27;85.11;93184.78;5031230;28;20038;-61
2021/01/24 03:06:36;;;;;;;0.50;0.50;;;;;;;1.38;84.69;93192.44;5031121;28;20030;-62
2021/01/24 03:09:01;;;;;;;0.88;0.65;;;;;;;1.44;84.90;93181.59;5032680;28;20553;-61
2021/01/24 03:11:28;;;;;;;0.80;0.50;;;;;;;1.37;84.92;93186.44;5013255;28;20056;-63
2021/01/24 03:14:14;;;;;;;0.50;0.50;;;;;;;1.19;84.84;93197.81;5013332;28;20119;-63
2021/01/24 03:16:40;;;;;;;1.30;0.60;;;;;;;1.36;84.57;93195.38;5028763;28;20049;-62
2021/01/24 03:19:09;;;;;;;1.08;0.70;;;;;;;1.36;85.00;93207.69;5029932;28;20122;-61
2021/01/24 03:21:37;;;;;;;0.52;0.52;;;;;;;1.34;84.30;93212.47;5030692;28;20029;-62
2021/01/24 03:24:04;;;;;;;0.57;0.57;;;;;;;1.10;84.08;93183.84;5032888;28;20029;-61
2021/01/24 03:26:30;;;;;;;0.88;0.57;;;;;;;0.58;83.76;93110.00;5030805;28;20042;-63
2021/01/24 03:28:55;;;;;;;0.90;0.70;;;;;;;1.25;84.28;93207.13;5030814;28;20238;-63
2021/01/24 03:31:21;;;;;;;0.88;0.82;;;;;;;1.33;84.10;93216.88;5030624;28;20091;-62
2021/01/24 03:33:46;;;;;;;0.50;0.50;;;;;;;1.35;84.15;93201.69;5030762;28;20029;-62
2021/01/24 03:36:12;;;;;;;0.80;0.77;;;;;;;1.00;84.88;93175.13;5032732;28;20032;-62
2021/01/24 03:38:37;;;;;;;0.80;0.70;;;;;;;1.06;83.77;93199.38;5030438;28;20064;-62
2021/01/24 03:41:03;;;;;;;0.93;0.50;;;;;;;0.95;84.75;93218.94;5030533;28;20057;-61
2021/01/24 03:43:28;;;;;;;0.60;0.60;;;;;;;1.27;85.04;93208.38;5030443;28;20067;-62
2021/01/24 03:45:53;;;;;;;0.50;0.50;;;;;;;1.18;84.81;93227.69;5030643;28;20041;-62
2021/01/24 03:48:19;;;;;;;0.45;0.40;;;;;;;1.08;83.96;93236.53;5032288;28;20025;-61
2021/01/24 03:50:44;;;;;;;1.00;0.50;;;;;;;1.14;84.05;93221.50;5030357;28;20470;-62
2021/01/24 03:53:09;;;;;;;0.40;0.40;;;;;;;1.09;83.91;93237.28;5012265;28;20044;-61
2021/01/24 03:55:34;;;;;;;0.35;0.35;;;;;;;0.94;83.02;93230.50;5030404;28;20440;-63
2021/01/24 03:58:00;;;;;;;0.40;0.40;;;;;;;0.98;83.25;93231.47;5030187;28;20040;-61
2021/01/24 04:00:25;;;;;;;0.47;0.45;;;;;;;1.30;80.56;93251.53;5012594;28;20501;-63
2021/01/24 04:02:50;;;;;;;0.55;0.30;;;;;;;1.12;79.85;93213.91;5032057;28;20684;-62
2021/01/24 04:05:16;;;;;;;0.40;0.40;;;;;;;1.31;79.76;93229.53;5030064;28;20089;-64
2021/01/24 04:07:41;;;;;;;0.40;0.40;;;;;;;1.23;80.49;93231.00;5029810;28;20049;-63
2021/01/24 04:10:07;;;;;;;0.40;0.40;;;;;;;1.03;78.77;93210.44;5030241;28;20133;-62
2021/01/24 04:12:35;;;;;;;0.43;0.20;;;;;;;1.22;78.57;93223.41;5012072;28;20083;-62
2021/01/24 04:15:03;;;;;;;0.47;0.40;;;;;;;1.44;80.40;93239.22;5032052;28;20064;-62
2021/01/24 04:17:28;;;;;;;0.52;0.30;;;;;;;1.29;78.46;93229.81;5029674;28;20037;-62
2021/01/24 04:19:53;;;;;;;1.67;0.50;;;;;;;1.36;78.15;93237.28;5029951;28;20045;-62
2021/01/24 04:22:18;;;;;;;1.10;0.32;;;;;;;1.09;77.60;93206.66;5029758;28;20503;-62
2021/01/24 04:24:44;;;;;;;1.60;0.90;;;;;;;1.16;80.01;93207.03;5029878;28;20055;-62
2021/01/24 04:27:09;;;;;;;0.35;0.20;;;;;;;1.33;77.46;93261.41;5031249;28;20033;-63
2021/01/24 04:29:34;;;;;;;0.50;0.20;;;;;;;1.08;76.39;93238.38;5029728;28;20045;-61
2021/01/24 04:32:00;;;;;;;1.00;0.57;;;;;;;1.30;77.53;93241.06;5011699;28;20144;-63
2021/01/24 04:34:25;;;;;;;0.80;0.50;;;;;;;1.10;76.70;93238.84;5029408;28;20521;-62
2021/01/24 04:36:51;;;;;;;1.10;0.40;;;;;;;1.13;76.72;93267.84;5011652;28;20068;-62
2021/01/24 04:39:16;;;;;;;0.30;0.30;;;;;;;1.17;76.54;93279.28;5031653;28;20029;-63
2021/01/24 04:41:46;;;;;;;0.20;0.20;;;;;;;1.20;76.60;93304.13;5029265;28;20044;-64
2021/01/24 04:44:11;;;;;;;0.05;0.05;;;;;;;0.92;76.83;93262.22;5029629;28;20064;-62
2021/01/24 04:46:37;;;;;;;0.82;0.30;;;;;;;1.21;75.32;93316.13;5029705;28;20033;-62
2021/01/24 04:49:03;;;;;;;0.52;0.20;;;;;;;1.04;75.77;93322.72;5029234;28;20041;-63
2021/01/24 04:51:29;;;;;;;0.47;0.30;;;;;;;1.05;75.35;93313.00;5029310;28;20037;-62
2021/01/24 04:53:55;;;;;;;0.47;0.20;;;;;;;1.15;75.34;93330.41;5031296;28;20083;-63
2021/01/24 04:56:20;;;;;;;0.70;0.20;;;;;;;0.86;75.66;93299.97;5029359;28;20033;-63
2021/01/24 04:58:47;;;;;;;0.20;0.20;;;;;;;0.61;76.60;93293.31;5029060;28;20071;-63
2021/01/24 05:01:15;;;;;;;0.30;0.30;;;;;;;0.95;76.07;93306.13;5028758;28;20045;-63
2021/01/24 05:03:41;;;;;;;1.05;0.30;;;;;;;0.56;75.08;93277.72;5029049;28;20034;-63
2021/01/24 05:06:06;;;;;;;0.40;0.30;;;;;;;0.85;74.76;93336.91;5013468;28;20022;-62
2021/01/24 05:08:31;;;;;;;0.30;0.13;;;;;;;0.56;74.96;93305.72;5028854;28;20060;-62
2021/01/24 05:11:07;;;;;;;1.17;0.30;;;;;;;0.88;76.18;93355.44;5029118;28;20068;-63
2021/01/24 05:13:33;;;;;;;0.65;0.40;;;;;;;0.62;74.50;93321.06;5028721;28;20490;-62
2021/01/24 05:15:59;;;;;;;1.27;0.30;;;;;;;0.67;74.01;93377.78;5029031;28;20674;-63
2021/01/24 05:18:24;;;;;;;0.30;0.30;;;;;;;0.78;74.14;93359.00;5012976;28;20036;-63
2021/01/24 05:20:53;;;;;;;0.20;0.10;;;;;;;0.79;73.90;93378.09;5011270;28;20448;-63
2021/01/24 05:23:22;;;;;;;0.38;0.20;;;;;;;0.71;73.73;93376.13;5028716;28;20037;-61
2021/01/24 05:25:49;;;;;;;0.22;0.22;;;;;;;0.73;74.60;93380.03;5028687;28;20402;-62
2021/01/24 05:28:17;;;;;;;0.25;0.25;;;;;;;0.67;74.35;93401.31;5028590;28;20531;-63
2021/01/24 05:30:43;;;;;;;0.43;0.20;;;;;;;0.41;74.91;93362.44;5028703;28;20029;-63
2021/01/24 05:33:08;;;;;;;0.30;0.30;;;;;;;0.58;75.02;93393.34;5030542;28;20033;-62
2021/01/24 05:35:45;;;;;;;0.20;0.20;;;;;;;0.52;76.02;93392.63;5028739;28;20033;-63
2021/01/24 05:38:20;;;;;;;0.13;0.13;;;;;;;0.40;75.10;93394.09;5011266;28;20034;-63
2021/01/24 05:40:46;;;;;;;0.43;0.32;;;;;;;0.36;74.97;93401.75;5029613;28;20585;-62
2021/01/24 05:43:11;;;;;;;0.40;0.40;;;;;;;0.19;74.50;93385.75;5029519;28;20128;-62
2021/01/24 05:45:37;;;;;;;0.30;0.28;;;;;;;0.40;74.91;93435.94;5029845;28;20040;-62
2021/01/24 05:48:04;;;;;;;0.32;0.32;;;;;;;0.52;74.51;93429.25;5031290;28;20434;-62
2021/01/24 05:50:29;;;;;;;0.75;0.35;;;;;;;0.30;73.89;93423.78;5029278;28;20052;-62
2021/01/24 05:52:55;;;;;;;0.38;0.38;;;;;;;0.35;74.49;93431.56;5029512;28;20030;-62
2021/01/24 05:55:31;;;;;;;0.50;0.40;;;;;;;0.40;73.88;93446.41;5029743;28;20038;-62
2021/01/24 05:57:57;;;;;;;0.20;0.20;;;;;;;0.18;74.21;93455.56;5011547;28;20380;-61
2021/01/24 06:00:23;;;;;;;0.20;0.20;;;;;;;0.11;74.27;93460.38;5013816;28;20033;-61
2021/01/24 06:02:49;;;;;;;0.30;0.20;;;;;;;0.07;74.46;93469.81;5029372;28;20034;-61
2021/01/24 06:05:14;;;;;;;0.38;0.30;;;;;;;0.19;74.11;93458.97;5029689;28;20123;-61
2021/01/24 06:07:40;;;;;;;0.32;0.22;;;;;;;0.05;74.27;93435.31;5029300;28;20039;-62
2021/01/24 06:10:06;;;;;;;0.30;0.30;;;;;;;0.03;75.33;93444.53;5029594;28;20042;-62
2021/01/24 06:12:35;;;;;;;0.50;0.50;;;;;;;0.07;74.55;93464.59;5011263;28;20029;-63
2021/01/24 06:15:04;;;;;;;0.55;0.52;;;;;;;0.03;74.12;93457.59;5031508;28;20108;-63
2021/01/24 06:17:40;;;;;;;0.52;0.52;;;;;;;0.06;74.36;93467.50;5011474;28;20128;-62
2021/01/24 06:20:07;;;;;;;0.20;0.20;;;;;;;-0.13;74.03;93455.16;5028877;28;20107;-61
2021/01/24 06:22:42;;;;;;;0.40;0.40;;;;;;;-0.04;73.45;93471.78;5029077;28;20049;-62
2021/01/24 06:25:17;;;;;;;0.30;0.30;;;;;;;-0.26;74.18;93453.19;5029447;28;20076;-63
2021/01/24 06:27:53;;;;;;;0.50;0.40;;;;;;;-0.23;73.71;93442.19;5029081;28;20479;-62
2021/01/24 06:30:22;;;;;;;0.60;0.52;;;;;;;-0.05;73.62;93466.84;5031287;28;20035;-65
2021/01/24 06:32:48;;;;;;;0.20;0.20;;;;;;;-0.28;73.26;93457.91;5029019;28;20125;-63
2021/01/24 06:35:16;;;;;;;0.70;0.40;;;;;;;-0.06;73.45;93484.31;5029445;28;20116;-63
2021/01/24 06:37:58;;;;;;;0.45;0.35;;;;;;;-0.10;73.06;93488.56;5011322;28;20518;-61
2021/01/24 06:40:28;;;;;;;0.70;0.60;;;;;;;-0.04;72.71;93482.22;5011260;28;20038;-61
2021/01/24 06:43:02;;;;;;;0.30;0.30;;;;;;;0.04;72.47;93487.91;5029142;28;20080;-61
2021/01/24 06:45:27;;;;;;;0.30;0.30;;;;;;;0.11;72.61;93504.03;5011689;28;20022;-61
2021/01/24 06:47:57;;;;;;;0.30;0.30;;;;;;;0.14;72.16;93508.69;5030829;28;20032;-62
2021/01/24 06:50:36;;;;;;;0.20;0.20;;;;;;;0.24;71.76;93535.50;5029879;28;20056;-61
2021/01/24 06:53:23;;;;;;;0.50;0.35;;;;;;;0.38;71.25;93524.38;5032558;28;20491;-61
2021/01/24 06:55:56;;;;;;;0.50;0.50;;;;;;;0.57;71.03;93527.06;5015002;28;20495;-60
2021/01/24 06:58:26;;;;;;;0.38;0.30;;;;;;;-0.09;72.75;93511.03;5032197;28;20426;-60
2021/01/24 07:00:52;;;;;;;0.60;0.50;;;;;;;0.15;72.09;93524.09;5032733;28;20037;-65
2021/01/24 07:03:22;;;;;;;0.40;0.40;;;;;;;0.29;72.26;93531.28;5016531;28;20447;-65
2021/01/24 07:05:47;;;;;;;0.50;0.50;;;;;;;0.20;72.11;93528.50;5032595;28;20044;-65
2021/01/24 07:08:30;;;;;;;0.40;0.40;;;;;;;0.58;71.67;93549.53;5032231;28;20030;-65
2021/01/24 07:10:56;;;;;;;0.60;0.60;;;;;;;0.32;71.75;93522.91;5032464;28;20740;-63
2021/01/24 07:13:30;;;;;;;0.60;0.60;;;;;;;0.49;71.84;93550.13;5032089;28;20068;-65
2021/01/24 07:15:57;;;;;;;0.80;0.80;;;;;;;0.43;71.59;93558.34;5032512;28;20049;-62
2021/01/24 07:18:23;;;;;;;0.43;0.43;;;;;;;0.08;72.46;93530.72;5033816;28;20382;-64
2021/01/24 07:20:51;;;;;;;0.70;0.70;;;;;;;-0.12;72.68;93519.41;5031532;28;20045;-63
2021/01/24 07:23:18;;;;;;;0.55;0.52;;;;;;;0.38;71.68;93576.69;5032138;28;20402;-64
2021/01/24 07:25:43;;;;;;;0.50;0.50;;;;;;;0.32;70.85;93541.97;5031932;28;20046;-64
2021/01/24 07:28:09;;;;;;;0.70;0.70;;;;;;;0.27;70.63;93538.66;5031819;28;20032;-65
2021/01/24 07:30:38;;;;;;;0.30;0.30;;;;;;;0.33;70.96;93574.13;5031986;28;20061;-65
2021/01/24 07:33:04;;;;;;;0.95;0.70;;;;;;;0.60;70.59;93560.50;5033619;28;20099;-65
2021/01/24 07:35:33;;;;;;;0.55;0.55;;;;;;;0.59;69.95;93553.69;5031943;28;20061;-65
2021/01/24 07:38:00;;;;;;;0.40;0.40;;;;;;;0.52;70.03;93541.75;5013793;28;20067;-66
2021/01/24 07:40:26;;;;;;;1.10;0.65;;;;;;;0.69;69.41;93577.91;5013986;28;20036;-63
2021/01/24 07:42:52;;;;;;;0.40;0.40;;;;;;;0.66;69.47;93583.69;5031339;28;20491;-64
2021/01/24 07:45:18;;;;;;;0.50;0.50;;;;;;;0.57;69.75;93588.00;5016044;28;20049;-68
2021/01/24 07:47:43;;;;;;;0.40;0.40;;;;;;;0.64;68.97;93577.19;5013369;28;20084;-64
2021/01/24 07:50:09;;;;;;;0.38;0.38;;;;;;;0.89;68.65;93597.06;5031386;28;20029;-65
2021/01/24 07:52:35;;;;;;;1.48;0.40;;;;;;;0.33;69.39;93561.84;5031261;28;20030;-65
2021/01/24 07:55:01;;;;;;;0.50;0.50;;;;;;;0.45;68.48;93604.06;5013493;28;20033;-69
2021/01/24 07:57:27;;;;;;;0.50;0.50;;;;;;;0.15;68.98;93546.84;5031368;28;20021;-71
2021/01/24 07:59:54;;;;;;;0.90;0.60;;;;;;;0.68;67.52;93594.69;5015497;28;20071;-65
2021/01/24 08:02:19;;;;;;;1.45;0.40;;;;;;;0.17;67.35;93617.97;5030556;28;20072;-67
2021/01/24 08:04:46;;;;;;;1.05;0.40;;;;;;;0.35;67.83;93622.47;5031480;28;20061;-68
2021/01/24 08:07:11;;;;;;;0.82;0.60;;;;;;;0.15;67.99;93623.44;5031163;28;20077;-62
2021/01/24 08:09:37;;;;;;;1.20;0.70;;;;;;;0.40;66.99;93625.03;5031417;28;20537;-61
2021/01/24 08:12:08;;;;;;;0.65;0.65;;;;;;;0.38;67.32;93629.00;5015214;28;20475;-60
2021/01/24 08:14:33;;;;;;;0.40;0.40;;;;;;;0.43;68.07;93627.13;5031172;28;20034;-61
2021/01/24 08:16:59;;;;;;;1.00;1.00;;;;;;;0.31;66.82;93631.97;5031052;28;20049;-60
2021/01/24 08:19:25;;;;;;;0.60;0.60;;;;;;;0.68;65.60;93627.91;5030856;28;20707;-61
2021/01/24 08:21:51;;;;;;;0.60;0.60;;;;;;;0.78;65.45;93627.81;5013031;28;20573;-63
2021/01/24 08:24:17;;;;;;;0.50;0.50;;;;;;;0.96;64.70;93621.81;5032875;28;20033;-61
2021/01/24 08:26:44;;;;;;;1.08;0.88;;;;;;;1.42;63.35;93620.44;5030616;28;20038;-64
2021/01/24 08:29:10;;;;;;;0.68;0.45;;;;;;;1.23;62.59;93617.84;5030813;28;20625;-61
2021/01/24 08:31:36;;;;;;;0.57;0.47;;;;;;;1.26;62.21;93623.25;5030598;28;20049;-65
2021/01/24 08:34:02;;;;;;;0.50;0.50;;;;;;;1.77;60.99;93632.25;5030741;28;20042;-64
2021/01/24 08:36:29;;;;;;;3.78;0.60;;;;;;;1.67;60.75;93627.94;5030780;28;20025;-64
2021/01/24 08:38:59;;;;;;;1.13;0.60;;;;;;;1.73;61.36;93642.53;5032486;28;20516;-63
2021/01/24 08:41:31;;;;;;;1.13;1.02;;;;;;;2.01;60.05;93632.16;5030359;28;20037;-63
2021/01/24 08:44:07;;;;;;;0.60;0.60;;;;;;;1.93;61.09;93641.44;5030553;28;20046;-64
2021/01/24 08:46:43;;;;;;;0.20;0.20;;;;;;;1.42;61.43;93638.78;5030595;28;20052;-60
2021/01/24 08:49:11;;;;;;;0.50;0.50;;;;;;;1.68;60.97;93618.22;5030506;28;20075;-66
2021/01/24 08:51:47;;;;;;;0.77;0.50;;;;;;;2.32;58.85;93645.53;5029672;28;20113;-65
2021/01/24 08:54:13;;;;;;;1.02;0.40;;;;;;;1.90;59.00;93605.31;5014808;28;20044;-67
2021/01/24 08:56:39;;;;;;;0.60;0.50;;;;;;;1.98;59.19;93624.84;5030490;28;20047;-63
2021/01/24 08:59:23;;;;;;;0.77;0.50;;;;;;;2.15;57.77;93658.41;5012279;28;20250;-67
2021/01/24 09:01:51;;;;;;;0.85;0.60;;;;;;;1.93;58.74;93666.88;5012205;28;20041;-64
2021/01/24 09:04:21;;;;;;;0.65;0.65;;;;;;;1.62;58.89;93672.56;5030336;28;20029;-63
2021/01/24 09:07:19;;;;;;;1.08;0.47;;;;;;;1.07;58.46;93681.91;5029953;28;20499;-64
2021/01/24 09:09:46;;;;;;;1.00;0.50;;;;;;;0.94;58.65;93667.66;4986425;28;20036;-70
2021/01/24 09:12:19;;;;;;;0.93;0.60;;;;;;;1.42;57.07;93689.34;5014160;28;20083;-66
2021/01/24 09:14:46;;;;;;;0.70;0.70;;;;;;;1.41;56.37;93700.88;5029362;28;20034;-70
2021/01/24 09:17:13;;;;;;;1.77;0.90;;;;;;;1.48;55.77;93703.16;5029919;28;20045;-66
2021/01/24 09:19:43;;;;;;;0.98;0.57;;;;;;;1.26;55.70;93686.13;5029720;28;20076;-67
2021/01/24 09:22:14;;;;;;;0.60;0.60;;;;;;;1.69;54.72;93706.28;5029451;28;20052;-67
2021/01/24 09:24:40;;;;;;;1.25;0.77;;;;;;;1.45;54.95;93719.44;5012537;28;20033;-65
2021/01/24 09:27:07;;;;;;;0.77;0.77;;;;;;;0.85;56.42;93685.03;5031585;28;20483;-66
2021/01/24 09:29:34;;;;;;;5.47;1.20;;;;;;;1.49;55.32;93702.88;5029707;28;20061;-67
2021/01/24 09:31:59;;;;;;;2.85;0.82;;;;;;;0.96;55.42;93723.91;5011995;28;20094;-65
2021/01/24 09:34:25;;;;;;;0.95;0.75;;;;;;;0.62;55.60;93681.38;5029741;28;20445;-65
2021/01/24 09:36:50;;;;;;;1.73;1.27;;;;;;;0.87;55.57;93735.28;5029486;28;20041;-65
2021/01/24 09:39:15;;;;;;;2.40;1.23;;;;;;;0.63;56.05;93703.84;5031779;28;20025;-65
2021/01/24 09:41:41;;;;;;;0.80;0.80;;;;;;;0.58;56.76;93728.22;5029396;28;20056;-68
2021/01/24 09:44:07;;;;;;;1.83;1.00;;;;;;;0.97;55.76;93729.94;5029765;28;20037;-64
2021/01/24 09:46:32;;;;;;;1.33;1.00;;;;;;;0.47;55.77;93701.38;5029649;28;20033;-65
2021/01/24 09:48:57;;;;;;;2.42;1.13;;;;;;;0.80;56.12;93717.28;5029338;28;20126;-62
2021/01/24 09:51:23;;;;;;;3.70;1.05;;;;;;;0.72;55.73;93723.91;5030789;28;20148;-62
2021/01/24 09:53:52;;;;;;;1.40;1.00;;;;;;;1.15;54.90;93716.13;5029296;28;20049;-61
2021/01/24 09:56:18;;;;;;;4.20;1.25;;;;;;;1.00;55.31;93740.63;5029649;28;20515;-63
2021/01/24 09:58:43;;;;;;;2.05;0.93;;;;;;;1.08;54.48;93746.34;5011419;28;20133;-66
2021/01/24 10:01:09;;;;;;;1.63;0.80;;;;;;;0.93;53.55;93723.72;5029372;28;20549;-66
2021/01/24 10:03:34;;;;;;;5.60;1.17;;;;;;;1.22;53.69;93708.69;5029167;28;20075;-66
2021/01/24 10:06:00;;;;;;;9.60;1.25;;;;;;;1.09;53.64;93729.56;5013651;28;20040;-64
2021/01/24 10:08:25;;;;;;;1.63;1.00;;;;;;;0.89;53.80;93720.84;5011266;28;20152;-64
2021/01/24 10:10:50;;;;;;;6.47;1.20;;;;;;;1.24;53.25;93737.25;5029348;28;20050;-66
2021/01/24 10:13:16;;;;;;;1.92;0.75;;;;;;;0.68;54.08;93717.66;5011230;28;20053;-65
2021/01/24 10:15:41;;;;;;;2.15;0.93;;;;;;;1.08;52.50;93746.34;5029320;28;20087;-61
2021/01/24 10:18:07;;;;;;;3.83;1.10;;;;;;;0.99;52.56;93720.75;5030971;28;20406;-62
2021/01/24 10:20:35;;;;;;;2.83;1.27;;;;;;;2.27;61.30;93698.09;5028751;28;20034;-66
2021/01/24 10:23:00;;;;;;;4.03;1.20;;;;;;;2.81;56.87;93728.16;5011481;28;20042;-67
2021/01/24 10:25:26;;;;;;;1.98;0.98;;;;;;;2.98;53.00;93753.91;5030539;28;20095;-69
2021/01/24 10:27:52;;;;;;;0.93;0.80;;;;;;;2.83;50.31;93758.34;5015191;28;20088;-72
2021/01/24 10:30:19;;;;;;;1.00;0.75;;;;;;;3.43;48.82;93749.66;5035040;28;20117;-70
2021/01/24 10:32:44;;;;;;;3.05;1.17;;;;;;;3.85;48.51;93724.84;5015039;28;20041;-69
2021/01/24 10:35:10;;;;;;;1.30;1.20;;;;;;;2.31;48.21;93747.09;5032460;28;20046;-66
2021/01/24 10:37:35;;;;;;;2.50;1.20;;;;;;;1.60;50.41;93713.25;5032699;28;20037;-66
2021/01/24 10:40:03;;;;;;;2.15;1.08;;;;;;;1.65;50.63;93739.38;5032897;28;20163;-66
2021/01/24 10:42:29;;;;;;;1.90;1.00;;;;;;;0.78;51.86;93694.00;5032400;28;20042;-66
2021/01/24 10:44:54;;;;;;;1.75;1.15;;;;;;;0.52;52.26;93695.31;5034896;28;20037;-67
2021/01/24 10:47:19;;;;;;;9.30;1.77;;;;;;;1.03;52.65;93728.84;5032379;28;20169;-67
2021/01/24 10:49:44;;;;;;;2.78;1.42;;;;;;;1.28;51.94;93718.06;5014599;28;20048;-66
2021/01/24 10:52:10;;;;;;;5.00;1.63;;;;;;;0.76;52.43;93703.97;5014280;28;20136;-66
2021/01/24 10:54:35;;;;;;;6.95;1.15;;;;;;;0.59;52.22;93677.44;5032425;28;20033;-65
2021/01/24 10:57:01;;;;;;;3.92;1.10;;;;;;;0.84;51.84;93696.56;5016601;28;20045;-66
2021/01/24 10:59:26;;;;;;;12.98;1.60;;;;;;;0.92;51.45;93724.75;5032392;28;20043;-66
2021/01/24 11:01:51;;;;;;;6.50;2.38;;;;;;;0.94;51.74;93699.88;5014467;28;20497;-67
2021/01/24 11:04:17;;;;;;;5.78;0.90;;;;;;;0.96;52.05;93721.28;5032337;28;20051;-65
2021/01/24 11:06:42;;;;;;;5.78;1.60;;;;;;;0.87;51.96;93675.06;5032123;28;20032;-66
2021/01/24 11:09:07;;;;;;;0.98;0.82;;;;;;;0.74;50.79;93684.38;5034407;28;20463;-66
2021/01/24 11:11:32;;;;;;;2.20;1.08;;;;;;;0.98;51.24;93742.75;5014206;28;20056;-65
2021/01/24 11:13:58;;;;;;;0.77;0.75;;;;;;;0.66;51.09;93687.59;5032368;28;20076;-65
2021/01/24 11:16:23;;;;;;;2.65;0.90;;;;;;;0.81;52.07;93742.41;5014404;28;20045;-63
2021/01/24 11:18:49;;;;;;;2.13;1.00;;;;;;;0.75;50.61;93718.09;5031362;28;20132;-64
2021/01/24 11:21:14;;;;;;;1.73;1.23;;;;;;;0.94;50.78;93705.09;5033361;28;20048;-66
2021/01/24 11:23:39;;;;;;;3.20;1.05;;;;;;;1.02;50.80;93714.97;5031860;28;20128;-66
2021/01/24 11:26:04;;;;;;;5.32;1.20;;;;;;;1.02;50.98;93719.41;5032027;28;20041;-67
2021/01/24 11:28:30;;;;;;;1.38;0.80;;;;;;;0.81;50.78;93708.38;5013774;28;20110;-68
2021/01/24 11:30:55;;;;;;;2.53;1.00;;;;;;;0.82;50.77;93749.22;5031987;28;20056;-65
2021/01/24 11:33:20;;;;;;;1.45;0.93;;;;;;;1.03;50.74;93695.56;5033514;28;20034;-70
2021/01/24 11:35:46;;;;;;;4.65;1.05;;;;;;;1.07;50.80;93723.81;5031543;28;20423;-67
2021/01/24 11:38:11;;;;;;;6.28;1.05;;;;;;;1.10;49.76;93686.59;5030803;28;20041;-67
2021/01/24 11:40:37;;;;;;;2.58;1.00;;;;;;;0.95;50.53;93684.94;5031072;28;20052;-69
2021/01/24 11:43:02;;;;;;;2.47;0.85;;;;;;;1.28;50.44;93719.91;5031333;28;20064;-67